Carneys Point Township, New Jersey
Current Conditions -  °F | °C
As of 1:51 PM on Thursday 27 Nov 2014 (Local Time) from KILG Reporting Station
Overcast Overcast  
Wind Chill: 35°   Ceiling: 6000
Heat Index: 41°   Visibility: 10mi
Dew Point: 29°   Wind: 9mph
Humidity: 62%   Direction: 290°WNW
Pressure: 30.04"   Gusts: NA
Location:  39.6981°N, 75.4502°W
Report Text: KILG 271851Z 29008KT 10SM FEW025 OVC060 05/M02 A3004 RMK AO2 SLP172 T00501017
Loading
Personal Weather Stations






























Interactive Weather Map New forecast layout! Learn more

10-Day Weather Forecast

Advertisements
Track Severe Weather on mobile